sensor_id;sensor_type;location;lat;lon;timestamp;temperature;humidity
23251;DHT22;11794;49.730;10.088;2022-07-29T00:00:35;21.00;83.10
23251;DHT22;11794;49.730;10.088;2022-07-29T00:03:01;20.90;82.80
23251;DHT22;11794;49.730;10.088;2022-07-29T00:05:27;20.90;82.40
23251;DHT22;11794;49.730;10.088;2022-07-29T00:07:52;20.90;83.10
23251;DHT22;11794;49.730;10.088;2022-07-29T00:10:18;20.90;82.80
23251;DHT22;11794;49.730;10.088;2022-07-29T00:12:43;20.90;83.70
23251;DHT22;11794;49.730;10.088;2022-07-29T00:15:09;20.80;83.10
23251;DHT22;11794;49.730;10.088;2022-07-29T00:17:34;20.80;82.60
23251;DHT22;11794;49.730;10.088;2022-07-29T00:20:00;20.70;83.00
23251;DHT22;11794;49.730;10.088;2022-07-29T00:22:26;20.70;82.60
23251;DHT22;11794;49.730;10.088;2022-07-29T00:24:51;20.70;84.20
23251;DHT22;11794;49.730;10.088;2022-07-29T00:27:17;20.70;83.90
23251;DHT22;11794;49.730;10.088;2022-07-29T00:29:42;20.70;82.80
23251;DHT22;11794;49.730;10.088;2022-07-29T00:32:08;20.70;83.40
23251;DHT22;11794;49.730;10.088;2022-07-29T00:34:33;20.50;83.60
23251;DHT22;11794;49.730;10.088;2022-07-29T00:37:18;20.40;84.80
23251;DHT22;11794;49.730;10.088;2022-07-29T00:39:43;20.30;85.50
23251;DHT22;11794;49.730;10.088;2022-07-29T00:42:09;20.20;86.00
23251;DHT22;11794;49.730;10.088;2022-07-29T00:44:39;20.10;85.60
23251;DHT22;11794;49.730;10.088;2022-07-29T00:47:05;20.00;85.90
23251;DHT22;11794;49.730;10.088;2022-07-29T00:49:32;19.90;86.40
23251;DHT22;11794;49.730;10.088;2022-07-29T00:51:57;19.80;86.80
23251;DHT22;11794;49.730;10.088;2022-07-29T00:54:23;19.80;87.20
23251;DHT22;11794;49.730;10.088;2022-07-29T00:56:49;19.80;87.70
23251;DHT22;11794;49.730;10.088;2022-07-29T00:59:14;19.60;88.70
23251;DHT22;11794;49.730;10.088;2022-07-29T01:01:40;19.50;88.60
23251;DHT22;11794;49.730;10.088;2022-07-29T01:04:06;19.50;89.90
23251;DHT22;11794;49.730;10.088;2022-07-29T01:06:32;19.30;89.00
23251;DHT22;11794;49.730;10.088;2022-07-29T01:08:59;19.10;90.20
23251;DHT22;11794;49.730;10.088;2022-07-29T01:11:25;19.00;90.60
23251;DHT22;11794;49.730;10.088;2022-07-29T01:13:51;19.00;91.00
23251;DHT22;11794;49.730;10.088;2022-07-29T01:16:39;18.80;91.00
23251;DHT22;11794;49.730;10.088;2022-07-29T01:19:33;18.80;91.00
23251;DHT22;11794;49.730;10.088;2022-07-29T01:22:22;18.70;91.10
23251;DHT22;11794;49.730;10.088;2022-07-29T01:27:32;18.50;91.80
23251;DHT22;11794;49.730;10.088;2022-07-29T01:30:04;18.50;91.70
23251;DHT22;11794;49.730;10.088;2022-07-29T01:32:33;18.40;92.30
23251;DHT22;11794;49.730;10.088;2022-07-29T01:35:15;18.40;92.00
23251;DHT22;11794;49.730;10.088;2022-07-29T01:37:50;18.30;91.90
23251;DHT22;11794;49.730;10.088;2022-07-29T01:40:22;18.20;91.60
23251;DHT22;11794;49.730;10.088;2022-07-29T01:42:52;18.10;91.90
23251;DHT22;11794;49.730;10.088;2022-07-29T01:45:23;18.00;92.10
23251;DHT22;11794;49.730;10.088;2022-07-29T01:48:21;17.90;92.30
23251;DHT22;11794;49.730;10.088;2022-07-29T01:51:05;17.80;92.90
23251;DHT22;11794;49.730;10.088;2022-07-29T01:53:38;17.80;92.90
23251;DHT22;11794;49.730;10.088;2022-07-29T01:56:09;17.80;92.50
23251;DHT22;11794;49.730;10.088;2022-07-29T01:58:36;17.80;93.00
23251;DHT22;11794;49.730;10.088;2022-07-29T02:01:05;17.80;93.10
23251;DHT22;11794;49.730;10.088;2022-07-29T02:03:32;17.80;93.40
23251;DHT22;11794;49.730;10.088;2022-07-29T02:06:00;17.70;93.30
23251;DHT22;11794;49.730;10.088;2022-07-29T02:08:27;17.70;93.50
23251;DHT22;11794;49.730;10.088;2022-07-29T02:10:54;17.80;92.80
23251;DHT22;11794;49.730;10.088;2022-07-29T02:13:21;17.80;92.80
23251;DHT22;11794;49.730;10.088;2022-07-29T02:15:50;17.70;93.10
23251;DHT22;11794;49.730;10.088;2022-07-29T02:18:17;17.80;92.90
23251;DHT22;11794;49.730;10.088;2022-07-29T02:20:47;17.80;93.30
23251;DHT22;11794;49.730;10.088;2022-07-29T02:23:15;17.70;93.30
23251;DHT22;11794;49.730;10.088;2022-07-29T02:25:43;17.70;93.10
23251;DHT22;11794;49.730;10.088;2022-07-29T02:28:09;17.70;93.20
23251;DHT22;11794;49.730;10.088;2022-07-29T02:30:40;17.70;93.10
23251;DHT22;11794;49.730;10.088;2022-07-29T02:33:08;17.70;93.60
23251;DHT22;11794;49.730;10.088;2022-07-29T02:35:35;17.70;93.10
23251;DHT22;11794;49.730;10.088;2022-07-29T02:38:02;17.70;93.10
23251;DHT22;11794;49.730;10.088;2022-07-29T02:40:48;17.70;93.30
23251;DHT22;11794;49.730;10.088;2022-07-29T02:43:17;17.70;93.60
23251;DHT22;11794;49.730;10.088;2022-07-29T02:45:45;17.70;93.20
23251;DHT22;11794;49.730;10.088;2022-07-29T02:48:15;17.70;93.00
23251;DHT22;11794;49.730;10.088;2022-07-29T02:50:49;17.60;93.10
23251;DHT22;11794;49.730;10.088;2022-07-29T02:53:23;17.60;93.20
23251;DHT22;11794;49.730;10.088;2022-07-29T02:56:23;17.60;93.10
23251;DHT22;11794;49.730;10.088;2022-07-29T02:58:51;17.60;93.10
23251;DHT22;11794;49.730;10.088;2022-07-29T03:01:22;17.50;93.00
23251;DHT22;11794;49.730;10.088;2022-07-29T03:03:50;17.50;92.90
23251;DHT22;11794;49.730;10.088;2022-07-29T03:06:19;17.50;93.40
23251;DHT22;11794;49.730;10.088;2022-07-29T03:08:46;17.50;93.40
23251;DHT22;11794;49.730;10.088;2022-07-29T03:11:13;17.50;93.60
23251;DHT22;11794;49.730;10.088;2022-07-29T03:13:40;17.50;93.50
23251;DHT22;11794;49.730;10.088;2022-07-29T03:16:06;17.50;93.40
23251;DHT22;11794;49.730;10.088;2022-07-29T03:18:33;17.50;93.40
23251;DHT22;11794;49.730;10.088;2022-07-29T03:20:59;17.60;93.60
23251;DHT22;11794;49.730;10.088;2022-07-29T03:23:25;17.60;93.40
23251;DHT22;11794;49.730;10.088;2022-07-29T03:25:53;17.60;94.00
23251;DHT22;11794;49.730;10.088;2022-07-29T03:28:19;17.60;93.80
23251;DHT22;11794;49.730;10.088;2022-07-29T03:30:45;17.60;93.80
23251;DHT22;11794;49.730;10.088;2022-07-29T03:33:11;17.60;93.70
23251;DHT22;11794;49.730;10.088;2022-07-29T03:35:37;17.60;93.80
23251;DHT22;11794;49.730;10.088;2022-07-29T03:38:03;17.60;94.00
23251;DHT22;11794;49.730;10.088;2022-07-29T03:43:32;17.60;93.80
23251;DHT22;11794;49.730;10.088;2022-07-29T03:46:00;17.60;93.70
23251;DHT22;11794;49.730;10.088;2022-07-29T03:48:28;17.60;93.60
23251;DHT22;11794;49.730;10.088;2022-07-29T03:50:57;17.60;93.80
23251;DHT22;11794;49.730;10.088;2022-07-29T03:53:22;17.60;94.00
23251;DHT22;11794;49.730;10.088;2022-07-29T03:55:52;17.60;94.20
23251;DHT22;11794;49.730;10.088;2022-07-29T03:58:19;17.50;94.30
23251;DHT22;11794;49.730;10.088;2022-07-29T04:00:45;17.50;94.40
23251;DHT22;11794;49.730;10.088;2022-07-29T04:03:11;17.60;94.20
23251;DHT22;11794;49.730;10.088;2022-07-29T04:05:37;17.60;94.10
23251;DHT22;11794;49.730;10.088;2022-07-29T04:08:03;17.70;94.40
23251;DHT22;11794;49.730;10.088;2022-07-29T04:10:29;17.70;94.30
23251;DHT22;11794;49.730;10.088;2022-07-29T04:12:54;17.70;94.40
23251;DHT22;11794;49.730;10.088;2022-07-29T04:15:20;17.70;94.10
23251;DHT22;11794;49.730;10.088;2022-07-29T04:17:45;17.80;94.40
23251;DHT22;11794;49.730;10.088;2022-07-29T04:20:11;17.90;94.20
23251;DHT22;11794;49.730;10.088;2022-07-29T04:22:40;17.90;94.20
23251;DHT22;11794;49.730;10.088;2022-07-29T04:25:06;18.00;94.40
23251;DHT22;11794;49.730;10.088;2022-07-29T04:27:31;18.00;94.20
23251;DHT22;11794;49.730;10.088;2022-07-29T04:29:57;18.00;94.10
23251;DHT22;11794;49.730;10.088;2022-07-29T04:32:23;18.00;94.10
23251;DHT22;11794;49.730;10.088;2022-07-29T04:34:49;18.00;94.50
23251;DHT22;11794;49.730;10.088;2022-07-29T04:37:15;17.90;94.90
23251;DHT22;11794;49.730;10.088;2022-07-29T04:39:40;17.90;94.80
23251;DHT22;11794;49.730;10.088;2022-07-29T04:42:06;17.90;94.70
23251;DHT22;11794;49.730;10.088;2022-07-29T04:44:31;17.80;95.00
23251;DHT22;11794;49.730;10.088;2022-07-29T04:46:57;17.80;94.70
23251;DHT22;11794;49.730;10.088;2022-07-29T04:49:23;17.80;95.20
23251;DHT22;11794;49.730;10.088;2022-07-29T04:51:48;17.80;95.20
23251;DHT22;11794;49.730;10.088;2022-07-29T04:54:14;17.80;95.10
23251;DHT22;11794;49.730;10.088;2022-07-29T04:56:39;17.80;96.00
23251;DHT22;11794;49.730;10.088;2022-07-29T04:59:05;17.80;96.20
23251;DHT22;11794;49.730;10.088;2022-07-29T05:01:30;17.80;96.10
23251;DHT22;11794;49.730;10.088;2022-07-29T05:03:56;17.70;96.00
23251;DHT22;11794;49.730;10.088;2022-07-29T05:06:21;17.70;95.90
23251;DHT22;11794;49.730;10.088;2022-07-29T05:08:47;17.80;95.90
23251;DHT22;11794;49.730;10.088;2022-07-29T05:11:12;17.80;95.80
23251;DHT22;11794;49.730;10.088;2022-07-29T05:13:38;17.80;95.80
23251;DHT22;11794;49.730;10.088;2022-07-29T05:16:04;17.80;96.30
23251;DHT22;11794;49.730;10.088;2022-07-29T05:18:30;17.80;96.10
23251;DHT22;11794;49.730;10.088;2022-07-29T05:20:55;17.80;96.40
23251;DHT22;11794;49.730;10.088;2022-07-29T05:23:21;17.90;96.50
23251;DHT22;11794;49.730;10.088;2022-07-29T05:25:47;17.90;96.50
23251;DHT22;11794;49.730;10.088;2022-07-29T05:28:12;17.90;96.90
23251;DHT22;11794;49.730;10.088;2022-07-29T05:30:38;18.00;96.60
23251;DHT22;11794;49.730;10.088;2022-07-29T05:33:03;18.00;96.00
23251;DHT22;11794;49.730;10.088;2022-07-29T05:35:29;18.10;95.50
23251;DHT22;11794;49.730;10.088;2022-07-29T05:37:54;18.20;95.70
23251;DHT22;11794;49.730;10.088;2022-07-29T05:40:20;18.30;96.10
23251;DHT22;11794;49.730;10.088;2022-07-29T05:42:46;18.40;95.70
23251;DHT22;11794;49.730;10.088;2022-07-29T05:45:11;18.50;95.70
23251;DHT22;11794;49.730;10.088;2022-07-29T05:47:37;18.60;94.70
23251;DHT22;11794;49.730;10.088;2022-07-29T05:50:02;18.80;94.60
23251;DHT22;11794;49.730;10.088;2022-07-29T05:52:29;18.90;94.40
23251;DHT22;11794;49.730;10.088;2022-07-29T05:54:55;19.00;94.10
23251;DHT22;11794;49.730;10.088;2022-07-29T05:57:22;19.10;94.10
23251;DHT22;11794;49.730;10.088;2022-07-29T05:59:49;19.20;93.50
23251;DHT22;11794;49.730;10.088;2022-07-29T06:02:16;19.40;93.50
23251;DHT22;11794;49.730;10.088;2022-07-29T06:04:41;19.60;93.20
23251;DHT22;11794;49.730;10.088;2022-07-29T06:07:07;19.60;92.50
23251;DHT22;11794;49.730;10.088;2022-07-29T06:09:33;19.80;92.50
23251;DHT22;11794;49.730;10.088;2022-07-29T06:11:59;19.90;92.20
23251;DHT22;11794;49.730;10.088;2022-07-29T06:14:25;20.10;92.30
23251;DHT22;11794;49.730;10.088;2022-07-29T06:16:52;20.20;91.90
23251;DHT22;11794;49.730;10.088;2022-07-29T06:19:19;20.20;91.40
23251;DHT22;11794;49.730;10.088;2022-07-29T06:21:45;20.20;91.70
23251;DHT22;11794;49.730;10.088;2022-07-29T06:24:12;20.40;91.40
23251;DHT22;11794;49.730;10.088;2022-07-29T06:26:39;20.50;90.90
23251;DHT22;11794;49.730;10.088;2022-07-29T06:29:05;20.60;91.10
23251;DHT22;11794;49.730;10.088;2022-07-29T06:31:30;20.70;90.70
23251;DHT22;11794;49.730;10.088;2022-07-29T06:33:56;20.80;91.30
23251;DHT22;11794;49.730;10.088;2022-07-29T06:36:21;20.90;90.80
23251;DHT22;11794;49.730;10.088;2022-07-29T06:38:47;21.00;90.50
23251;DHT22;11794;49.730;10.088;2022-07-29T06:41:13;21.10;90.30
23251;DHT22;11794;49.730;10.088;2022-07-29T06:43:41;21.20;90.30
23251;DHT22;11794;49.730;10.088;2022-07-29T06:46:12;21.30;89.60
23251;DHT22;11794;49.730;10.088;2022-07-29T06:48:39;21.30;90.40
23251;DHT22;11794;49.730;10.088;2022-07-29T06:51:06;21.60;90.50
23251;DHT22;11794;49.730;10.088;2022-07-29T06:53:33;21.80;90.20
23251;DHT22;11794;49.730;10.088;2022-07-29T06:56:00;21.80;88.70
23251;DHT22;11794;49.730;10.088;2022-07-29T06:58:26;21.90;89.40
23251;DHT22;11794;49.730;10.088;2022-07-29T07:00:52;22.20;89.80
23251;DHT22;11794;49.730;10.088;2022-07-29T07:03:18;22.40;88.70
23251;DHT22;11794;49.730;10.088;2022-07-29T07:05:44;22.70;87.50
23251;DHT22;11794;49.730;10.088;2022-07-29T07:08:11;22.80;89.30
23251;DHT22;11794;49.730;10.088;2022-07-29T07:10:36;23.10;87.00
23251;DHT22;11794;49.730;10.088;2022-07-29T07:13:03;23.20;87.50
23251;DHT22;11794;49.730;10.088;2022-07-29T07:15:29;23.20;85.90
23251;DHT22;11794;49.730;10.088;2022-07-29T07:17:55;23.10;86.00
23251;DHT22;11794;49.730;10.088;2022-07-29T07:20:20;23.10;86.20
23251;DHT22;11794;49.730;10.088;2022-07-29T07:22:46;23.10;86.50
23251;DHT22;11794;49.730;10.088;2022-07-29T07:25:12;23.50;86.40
23251;DHT22;11794;49.730;10.088;2022-07-29T07:27:38;23.90;86.00
23251;DHT22;11794;49.730;10.088;2022-07-29T07:30:05;24.20;85.50
23251;DHT22;11794;49.730;10.088;2022-07-29T07:32:35;24.70;83.50
23251;DHT22;11794;49.730;10.088;2022-07-29T07:35:01;24.70;82.70
23251;DHT22;11794;49.730;10.088;2022-07-29T07:37:26;24.60;83.40
23251;DHT22;11794;49.730;10.088;2022-07-29T07:39:52;24.40;83.10
23251;DHT22;11794;49.730;10.088;2022-07-29T07:42:19;24.10;83.90
23251;DHT22;11794;49.730;10.088;2022-07-29T07:44:44;24.10;84.60
23251;DHT22;11794;49.730;10.088;2022-07-29T07:47:11;24.40;85.50
23251;DHT22;11794;49.730;10.088;2022-07-29T07:49:37;24.80;83.20
23251;DHT22;11794;49.730;10.088;2022-07-29T07:52:03;25.40;82.80
23251;DHT22;11794;49.730;10.088;2022-07-29T07:54:28;25.60;81.50
23251;DHT22;11794;49.730;10.088;2022-07-29T07:56:54;26.10;80.10
23251;DHT22;11794;49.730;10.088;2022-07-29T07:59:19;26.10;79.60
23251;DHT22;11794;49.730;10.088;2022-07-29T08:01:45;26.20;79.40
23251;DHT22;11794;49.730;10.088;2022-07-29T08:04:10;26.30;79.70
23251;DHT22;11794;49.730;10.088;2022-07-29T08:06:36;26.90;78.00
23251;DHT22;11794;49.730;10.088;2022-07-29T08:09:03;27.20;78.00
23251;DHT22;11794;49.730;10.088;2022-07-29T08:11:29;27.40;77.60
23251;DHT22;11794;49.730;10.088;2022-07-29T08:13:55;28.00;79.10
23251;DHT22;11794;49.730;10.088;2022-07-29T08:16:20;28.90;76.30
23251;DHT22;11794;49.730;10.088;2022-07-29T08:18:46;29.70;73.30
23251;DHT22;11794;49.730;10.088;2022-07-29T08:21:13;29.90;72.20
23251;DHT22;11794;49.730;10.088;2022-07-29T08:23:39;29.50;71.60
23251;DHT22;11794;49.730;10.088;2022-07-29T08:26:10;28.90;73.50
23251;DHT22;11794;49.730;10.088;2022-07-29T08:28:40;28.80;73.60
23251;DHT22;11794;49.730;10.088;2022-07-29T08:31:06;29.10;73.30
23251;DHT22;11794;49.730;10.088;2022-07-29T08:33:32;28.80;74.70
23251;DHT22;11794;49.730;10.088;2022-07-29T08:35:58;28.70;73.80
23251;DHT22;11794;49.730;10.088;2022-07-29T08:38:24;28.60;75.60
23251;DHT22;11794;49.730;10.088;2022-07-29T08:40:51;28.40;75.40
23251;DHT22;11794;49.730;10.088;2022-07-29T08:43:18;28.10;75.70
23251;DHT22;11794;49.730;10.088;2022-07-29T08:45:48;27.90;76.80
23251;DHT22;11794;49.730;10.088;2022-07-29T08:48:17;27.80;77.00
23251;DHT22;11794;49.730;10.088;2022-07-29T08:50:43;27.70;77.50
23251;DHT22;11794;49.730;10.088;2022-07-29T08:53:14;27.90;76.40
23251;DHT22;11794;49.730;10.088;2022-07-29T08:55:45;27.80;76.60
23251;DHT22;11794;49.730;10.088;2022-07-29T08:58:11;27.70;77.60
23251;DHT22;11794;49.730;10.088;2022-07-29T09:00:42;27.60;77.30
23251;DHT22;11794;49.730;10.088;2022-07-29T09:03:08;27.50;77.20
23251;DHT22;11794;49.730;10.088;2022-07-29T09:05:34;27.50;76.40
23251;DHT22;11794;49.730;10.088;2022-07-29T09:08:01;27.40;77.00
23251;DHT22;11794;49.730;10.088;2022-07-29T09:10:27;27.40;78.10
23251;DHT22;11794;49.730;10.088;2022-07-29T09:12:54;27.60;78.60
23251;DHT22;11794;49.730;10.088;2022-07-29T09:15:20;27.50;76.40
23251;DHT22;11794;49.730;10.088;2022-07-29T09:17:48;27.50;78.20
23251;DHT22;11794;49.730;10.088;2022-07-29T09:22:41;27.80;75.90
23251;DHT22;11794;49.730;10.088;2022-07-29T09:25:07;27.80;78.10
23251;DHT22;11794;49.730;10.088;2022-07-29T09:27:33;28.00;76.30
23251;DHT22;11794;49.730;10.088;2022-07-29T09:32:26;28.60;75.50
23251;DHT22;11794;49.730;10.088;2022-07-29T09:35:15;28.90;77.40
23251;DHT22;11794;49.730;10.088;2022-07-29T09:37:42;29.10;76.80
23251;DHT22;11794;49.730;10.088;2022-07-29T09:40:16;29.30;75.80
23251;DHT22;11794;49.730;10.088;2022-07-29T09:42:42;29.70;75.60
23251;DHT22;11794;49.730;10.088;2022-07-29T09:45:08;30.90;74.40
23251;DHT22;11794;49.730;10.088;2022-07-29T09:47:47;32.00;71.80
23251;DHT22;11794;49.730;10.088;2022-07-29T09:50:15;32.80;67.30
23251;DHT22;11794;49.730;10.088;2022-07-29T09:52:58;32.80;65.50
23251;DHT22;11794;49.730;10.088;2022-07-29T09:55:24;33.40;66.80
23251;DHT22;11794;49.730;10.088;2022-07-29T09:57:49;33.70;66.50
23251;DHT22;11794;49.730;10.088;2022-07-29T10:00:17;34.20;64.40
23251;DHT22;11794;49.730;10.088;2022-07-29T10:02:45;33.80;64.20
23251;DHT22;11794;49.730;10.088;2022-07-29T10:05:21;33.60;63.40
23251;DHT22;11794;49.730;10.088;2022-07-29T10:07:52;33.20;64.50
23251;DHT22;11794;49.730;10.088;2022-07-29T10:10:24;32.90;65.00
23251;DHT22;11794;49.730;10.088;2022-07-29T10:12:59;32.70;65.50
23251;DHT22;11794;49.730;10.088;2022-07-29T10:15:28;33.10;64.10
23251;DHT22;11794;49.730;10.088;2022-07-29T10:17:55;33.60;63.30
23251;DHT22;11794;49.730;10.088;2022-07-29T10:20:22;34.00;61.70
23251;DHT22;11794;49.730;10.088;2022-07-29T10:22:49;34.00;62.40
23251;DHT22;11794;49.730;10.088;2022-07-29T10:25:16;34.60;62.80
23251;DHT22;11794;49.730;10.088;2022-07-29T10:27:42;35.10;62.20
23251;DHT22;11794;49.730;10.088;2022-07-29T10:30:08;35.10;61.70
23251;DHT22;11794;49.730;10.088;2022-07-29T10:44:22;32.50;65.40
23251;DHT22;11794;49.730;10.088;2022-07-29T10:46:50;32.10;66.80
23251;DHT22;11794;49.730;10.088;2022-07-29T10:51:53;33.20;65.00
23251;DHT22;11794;49.730;10.088;2022-07-29T10:57:28;33.60;63.70
23251;DHT22;11794;49.730;10.088;2022-07-29T11:02:41;34.50;62.80
23251;DHT22;11794;49.730;10.088;2022-07-29T11:05:17;35.00;61.40
23251;DHT22;11794;49.730;10.088;2022-07-29T11:08:18;35.10;61.60
23251;DHT22;11794;49.730;10.088;2022-07-29T11:10:45;35.20;60.20
23251;DHT22;11794;49.730;10.088;2022-07-29T11:13:11;35.30;60.40
23251;DHT22;11794;49.730;10.088;2022-07-29T11:15:58;35.30;60.50
23251;DHT22;11794;49.730;10.088;2022-07-29T11:18:24;35.50;60.20
23251;DHT22;11794;49.730;10.088;2022-07-29T11:20:50;35.60;60.10
23251;DHT22;11794;49.730;10.088;2022-07-29T11:23:26;35.20;59.80
23251;DHT22;11794;49.730;10.088;2022-07-29T11:34:22;33.50;63.80
23251;DHT22;11794;49.730;10.088;2022-07-29T11:39:33;33.20;64.40
23251;DHT22;11794;49.730;10.088;2022-07-29T11:47:32;33.70;64.40
23251;DHT22;11794;49.730;10.088;2022-07-29T11:50:00;34.30;63.50
23251;DHT22;11794;49.730;10.088;2022-07-29T11:52:40;34.80;62.00
23251;DHT22;11794;49.730;10.088;2022-07-29T11:55:14;35.30;61.80
23251;DHT22;11794;49.730;10.088;2022-07-29T11:57:53;35.80;62.00
23251;DHT22;11794;49.730;10.088;2022-07-29T12:02:51;36.40;60.10
23251;DHT22;11794;49.730;10.088;2022-07-29T12:05:17;36.60;59.50
23251;DHT22;11794;49.730;10.088;2022-07-29T12:07:43;36.20;59.90
23251;DHT22;11794;49.730;10.088;2022-07-29T12:10:09;34.90;61.60
23251;DHT22;11794;49.730;10.088;2022-07-29T12:12:35;33.70;63.20
23251;DHT22;11794;49.730;10.088;2022-07-29T12:15:14;32.80;65.70
23251;DHT22;11794;49.730;10.088;2022-07-29T12:17:42;32.50;65.90
23251;DHT22;11794;49.730;10.088;2022-07-29T12:20:08;32.60;67.10
23251;DHT22;11794;49.730;10.088;2022-07-29T12:22:36;32.50;66.20
23251;DHT22;11794;49.730;10.088;2022-07-29T12:25:10;32.80;67.00
23251;DHT22;11794;49.730;10.088;2022-07-29T12:27:37;32.90;66.50
23251;DHT22;11794;49.730;10.088;2022-07-29T12:30:08;32.80;66.50
23251;DHT22;11794;49.730;10.088;2022-07-29T12:32:39;32.90;66.80
23251;DHT22;11794;49.730;10.088;2022-07-29T12:35:10;33.40;66.20
23251;DHT22;11794;49.730;10.088;2022-07-29T12:37:38;33.30;66.70
23251;DHT22;11794;49.730;10.088;2022-07-29T12:40:05;33.20;66.40
23251;DHT22;11794;49.730;10.088;2022-07-29T12:42:31;33.10;65.70
23251;DHT22;11794;49.730;10.088;2022-07-29T12:44:57;33.10;66.70
23251;DHT22;11794;49.730;10.088;2022-07-29T12:47:23;33.00;66.00
23251;DHT22;11794;49.730;10.088;2022-07-29T12:49:50;33.20;65.50
23251;DHT22;11794;49.730;10.088;2022-07-29T12:52:30;33.00;66.20
23251;DHT22;11794;49.730;10.088;2022-07-29T12:54:57;33.20;66.50
23251;DHT22;11794;49.730;10.088;2022-07-29T12:57:22;34.50;64.50
23251;DHT22;11794;49.730;10.088;2022-07-29T13:00:10;36.20;61.90
23251;DHT22;11794;49.730;10.088;2022-07-29T13:02:37;37.30;59.50
23251;DHT22;11794;49.730;10.088;2022-07-29T13:05:05;37.00;60.00
23251;DHT22;11794;49.730;10.088;2022-07-29T13:07:33;36.70;59.60
23251;DHT22;11794;49.730;10.088;2022-07-29T13:10:17;35.90;60.00
23251;DHT22;11794;49.730;10.088;2022-07-29T13:13:08;36.50;60.60
23251;DHT22;11794;49.730;10.088;2022-07-29T13:15:36;38.20;58.10
23251;DHT22;11794;49.730;10.088;2022-07-29T13:18:03;38.20;57.10
23251;DHT22;11794;49.730;10.088;2022-07-29T13:20:30;37.80;57.30
23251;DHT22;11794;49.730;10.088;2022-07-29T13:23:00;36.70;57.90
23251;DHT22;11794;49.730;10.088;2022-07-29T13:25:26;35.10;59.80
23251;DHT22;11794;49.730;10.088;2022-07-29T13:27:53;33.70;62.50
23251;DHT22;11794;49.730;10.088;2022-07-29T13:30:20;32.70;64.30
23251;DHT22;11794;49.730;10.088;2022-07-29T13:32:46;32.00;65.30
23251;DHT22;11794;49.730;10.088;2022-07-29T13:35:12;31.40;67.10
23251;DHT22;11794;49.730;10.088;2022-07-29T13:37:39;30.90;67.80
23251;DHT22;11794;49.730;10.088;2022-07-29T13:40:08;30.50;68.30
23251;DHT22;11794;49.730;10.088;2022-07-29T13:42:34;30.10;69.90
23251;DHT22;11794;49.730;10.088;2022-07-29T13:45:00;29.80;70.20
23251;DHT22;11794;49.730;10.088;2022-07-29T13:47:27;29.50;70.80
23251;DHT22;11794;49.730;10.088;2022-07-29T13:49:54;29.30;71.20
23251;DHT22;11794;49.730;10.088;2022-07-29T13:52:20;29.20;71.30
23251;DHT22;11794;49.730;10.088;2022-07-29T13:54:46;29.00;71.90
23251;DHT22;11794;49.730;10.088;2022-07-29T13:57:12;28.70;72.10
23251;DHT22;11794;49.730;10.088;2022-07-29T13:59:38;28.70;73.00
23251;DHT22;11794;49.730;10.088;2022-07-29T14:02:04;28.60;77.00
23251;DHT22;11794;49.730;10.088;2022-07-29T14:04:31;28.40;82.40
23251;DHT22;11794;49.730;10.088;2022-07-29T14:06:56;28.20;85.80
23251;DHT22;11794;49.730;10.088;2022-07-29T14:09:22;28.10;87.20
23251;DHT22;11794;49.730;10.088;2022-07-29T14:11:47;27.90;89.70
23251;DHT22;11794;49.730;10.088;2022-07-29T14:14:15;27.70;90.40
23251;DHT22;11794;49.730;10.088;2022-07-29T14:16:40;27.40;91.20
23251;DHT22;11794;49.730;10.088;2022-07-29T14:19:06;27.10;92.70
23251;DHT22;11794;49.730;10.088;2022-07-29T14:21:32;26.80;94.40
23251;DHT22;11794;49.730;10.088;2022-07-29T14:23:57;26.40;94.70
23251;DHT22;11794;49.730;10.088;2022-07-29T14:26:23;26.20;95.30
23251;DHT22;11794;49.730;10.088;2022-07-29T14:28:49;26.10;95.70
23251;DHT22;11794;49.730;10.088;2022-07-29T14:31:15;26.20;96.30
23251;DHT22;11794;49.730;10.088;2022-07-29T14:33:41;26.10;97.40
23251;DHT22;11794;49.730;10.088;2022-07-29T14:36:06;25.90;98.20
23251;DHT22;11794;49.730;10.088;2022-07-29T14:38:33;25.90;99.70
23251;DHT22;11794;49.730;10.088;2022-07-29T14:40:58;25.90;99.70
23251;DHT22;11794;49.730;10.088;2022-07-29T14:43:24;25.60;97.60
23251;DHT22;11794;49.730;10.088;2022-07-29T14:45:49;25.30;98.30
23251;DHT22;11794;49.730;10.088;2022-07-29T14:48:15;25.10;99.70
23251;DHT22;11794;49.730;10.088;2022-07-29T14:50:40;24.90;99.90
23251;DHT22;11794;49.730;10.088;2022-07-29T14:53:06;24.70;99.90
23251;DHT22;11794;49.730;10.088;2022-07-29T14:55:32;24.50;99.90
23251;DHT22;11794;49.730;10.088;2022-07-29T14:57:57;24.40;99.90
23251;DHT22;11794;49.730;10.088;2022-07-29T15:00:24;24.30;99.90
23251;DHT22;11794;49.730;10.088;2022-07-29T15:02:50;24.30;99.90
23251;DHT22;11794;49.730;10.088;2022-07-29T15:05:16;24.30;99.90
23251;DHT22;11794;49.730;10.088;2022-07-29T15:07:41;24.30;99.90
23251;DHT22;11794;49.730;10.088;2022-07-29T15:10:07;24.40;99.90
23251;DHT22;11794;49.730;10.088;2022-07-29T15:12:33;24.40;99.90
23251;DHT22;11794;49.730;10.088;2022-07-29T15:14:58;24.50;99.90
23251;DHT22;11794;49.730;10.088;2022-07-29T15:17:24;24.50;99.90
23251;DHT22;11794;49.730;10.088;2022-07-29T15:19:49;24.40;99.90
23251;DHT22;11794;49.730;10.088;2022-07-29T15:22:15;23.90;99.90
23251;DHT22;11794;49.730;10.088;2022-07-29T15:24:41;23.40;99.90
23251;DHT22;11794;49.730;10.088;2022-07-29T15:27:06;23.00;99.90
23251;DHT22;11794;49.730;10.088;2022-07-29T15:29:32;22.80;99.90
23251;DHT22;11794;49.730;10.088;2022-07-29T15:31:58;22.60;99.90
23251;DHT22;11794;49.730;10.088;2022-07-29T15:34:24;22.40;99.90
23251;DHT22;11794;49.730;10.088;2022-07-29T15:36:50;22.20;99.90
23251;DHT22;11794;49.730;10.088;2022-07-29T15:39:16;22.00;99.90
23251;DHT22;11794;49.730;10.088;2022-07-29T15:41:42;21.90;99.90
23251;DHT22;11794;49.730;10.088;2022-07-29T15:44:07;22.00;99.90
23251;DHT22;11794;49.730;10.088;2022-07-29T15:46:33;21.90;99.90
23251;DHT22;11794;49.730;10.088;2022-07-29T15:49:17;21.90;99.90
23251;DHT22;11794;49.730;10.088;2022-07-29T15:51:43;21.80;99.90
23251;DHT22;11794;49.730;10.088;2022-07-29T15:54:08;21.80;99.90
23251;DHT22;11794;49.730;10.088;2022-07-29T15:56:34;22.00;99.90
23251;DHT22;11794;49.730;10.088;2022-07-29T15:58:59;22.00;99.90
23251;DHT22;11794;49.730;10.088;2022-07-29T16:01:25;21.90;99.90
23251;DHT22;11794;49.730;10.088;2022-07-29T16:03:51;21.90;99.90
23251;DHT22;11794;49.730;10.088;2022-07-29T16:06:17;21.80;99.90
23251;DHT22;11794;49.730;10.088;2022-07-29T16:08:42;21.60;99.90